Time;durP1;ratioP1;P1;durP2;ratioP2;P2;SDS_P1;SDS_P2;PMS_P1;PMS_P2;Temp;Humidity;BMP_temperature;BMP_pressure;BME280_temperature;BME280_humidity;BME280_pressure;Samples;Min_cycle;Max_cycle;Signal;HPM_P1;HPM_P2
2021/05/22 00:00:25;;;;;;;3.73;0.90;;;;;;;7.88;65.53;94774.94;5028696;28;20192;-76
2021/05/22 00:02:50;;;;;;;1.80;1.00;;;;;;;7.84;65.54;94773.59;5021733;28;20203;-75
2021/05/22 00:05:16;;;;;;;3.07;0.70;;;;;;;7.87;65.43;94773.31;5013503;28;20193;-76
2021/05/22 00:07:41;;;;;;;3.50;1.00;;;;;;;7.82;65.72;94773.75;5013312;28;20658;-76
2021/05/22 00:10:11;;;;;;;2.57;0.93;;;;;;;7.85;65.32;94770.88;5029847;28;20175;-77
2021/05/22 00:12:41;;;;;;;2.30;0.90;;;;;;;7.84;65.55;94784.75;5024328;28;20253;-76
2021/05/22 00:15:08;;;;;;;1.23;0.80;;;;;;;7.86;65.27;94787.19;5024040;28;20191;-75
2021/05/22 00:17:33;;;;;;;4.43;1.03;;;;;;;7.80;65.56;94798.16;5033490;28;20182;-76
2021/05/22 00:19:59;;;;;;;1.70;0.90;;;;;;;7.76;65.86;94787.28;5034785;28;20189;-76
2021/05/22 00:22:25;;;;;;;2.13;1.10;;;;;;;7.69;66.21;94785.47;5028183;28;20207;-76
2021/05/22 00:24:50;;;;;;;3.80;1.00;;;;;;;7.67;66.37;94777.81;5028944;28;20236;-76
2021/05/22 00:27:15;;;;;;;3.37;0.90;;;;;;;7.74;66.44;94768.53;5033419;28;20581;-76
2021/05/22 00:29:41;;;;;;;2.43;1.03;;;;;;;7.64;66.50;94773.78;5033500;28;20206;-76
2021/05/22 00:32:06;;;;;;;3.90;1.10;;;;;;;7.63;67.07;94786.84;5032146;28;20232;-75
2021/05/22 00:34:31;;;;;;;2.47;1.00;;;;;;;7.64;67.00;94786.69;5031186;28;20186;-75
2021/05/22 00:36:56;;;;;;;2.87;0.83;;;;;;;7.65;67.14;94777.97;5033211;28;20182;-77
2021/05/22 00:39:22;;;;;;;2.20;1.10;;;;;;;7.66;67.01;94783.97;5034531;28;20194;-77
2021/05/22 00:41:47;;;;;;;4.27;1.17;;;;;;;7.65;66.95;94785.72;5034068;28;20630;-76
2021/05/22 00:44:12;;;;;;;3.10;1.00;;;;;;;7.64;66.94;94784.13;5032244;28;20194;-74
2021/05/22 00:46:38;;;;;;;3.30;1.20;;;;;;;7.61;67.32;94788.78;5032818;28;20198;-77
2021/05/22 00:49:03;;;;;;;4.00;1.10;;;;;;;7.64;67.35;94797.03;5032898;28;20189;-77
2021/05/22 00:51:28;;;;;;;3.93;1.10;;;;;;;7.62;67.24;94791.22;5033664;28;20565;-77
2021/05/22 00:53:54;;;;;;;3.07;0.90;;;;;;;7.59;67.59;94794.06;5015174;28;20213;-77
2021/05/22 00:56:19;;;;;;;4.20;1.27;;;;;;;7.71;67.26;94806.78;5024542;28;20171;-77
2021/05/22 00:58:45;;;;;;;6.20;1.20;;;;;;;7.64;67.70;94809.94;5016190;28;20182;-77
2021/05/22 01:01:11;;;;;;;3.33;1.03;;;;;;;7.65;67.75;94816.75;5033805;28;20237;-77
2021/05/22 01:03:41;;;;;;;6.00;1.47;;;;;;;7.74;67.41;94829.75;5033761;28;20670;-77
2021/05/22 01:06:12;;;;;;;3.17;1.13;;;;;;;7.77;67.60;94832.03;5023116;28;20215;-77
2021/05/22 01:08:38;;;;;;;2.40;1.13;;;;;;;7.72;68.50;94858.31;5033735;28;20658;-76
2021/05/22 01:11:27;;;;;;;6.33;2.40;;;;;;;7.83;71.09;94909.81;5032486;28;20565;-76
2021/05/22 01:13:59;;;;;;;2.20;0.70;;;;;;;7.56;71.97;94915.00;5016123;28;20248;-76
2021/05/22 01:16:25;;;;;;;3.50;0.93;;;;;;;7.29;73.21;94920.97;5031339;28;20187;-75
2021/05/22 01:18:51;;;;;;;2.77;0.67;;;;;;;7.00;74.09;94909.00;5032407;28;20273;-76
2021/05/22 01:21:16;;;;;;;2.40;0.80;;;;;;;6.81;73.88;94886.66;5031825;28;20175;-76
2021/05/22 01:23:47;;;;;;;2.33;0.80;;;;;;;6.52;75.29;94876.38;5032394;28;20316;-76
2021/05/22 01:26:13;;;;;;;2.73;0.90;;;;;;;6.50;75.26;94864.59;5029202;28;20632;-76
2021/05/22 01:28:39;;;;;;;3.33;1.17;;;;;;;6.47;75.47;94870.03;5027912;28;20217;-76
2021/05/22 01:31:07;;;;;;;2.10;0.80;;;;;;;6.41;75.28;94870.59;5015212;28;20236;-76
2021/05/22 01:33:33;;;;;;;2.30;0.87;;;;;;;6.33;76.23;94854.97;5015569;28;20206;-75
2021/05/22 01:35:58;;;;;;;1.80;0.70;;;;;;;6.24;77.19;94872.91;5031269;28;20201;-75
2021/05/22 01:38:23;;;;;;;2.03;0.70;;;;;;;6.24;77.17;94880.63;5023542;28;20217;-76
2021/05/22 01:40:50;;;;;;;3.77;0.73;;;;;;;6.21;78.10;94883.50;5031749;28;20273;-75
2021/05/22 01:43:15;;;;;;;2.93;0.70;;;;;;;6.08;78.15;94888.13;5031936;28;20205;-76
2021/05/22 01:45:42;;;;;;;4.53;0.80;;;;;;;6.17;78.49;94886.47;5015203;28;20182;-76
2021/05/22 01:48:11;;;;;;;2.67;0.60;;;;;;;6.11;78.78;94892.19;5030723;28;20610;-75
2021/05/22 01:50:39;;;;;;;2.17;0.47;;;;;;;6.20;78.53;94883.66;5014954;28;20590;-76
2021/05/22 01:53:07;;;;;;;1.10;0.67;;;;;;;6.15;78.93;94880.66;5032001;28;20615;-76
2021/05/22 01:55:32;;;;;;;1.23;0.57;;;;;;;6.10;79.58;94893.97;5015301;28;20182;-76
2021/05/22 01:57:58;;;;;;;2.87;0.60;;;;;;;6.05;80.05;94890.16;5014052;28;20696;-75
2021/05/22 02:00:23;;;;;;;1.07;0.40;;;;;;;5.96;80.33;94876.31;5023215;28;20182;-76
2021/05/22 02:03:01;;;;;;;0.87;0.50;;;;;;;5.81;80.48;94857.03;5031542;28;20359;-75
2021/05/22 02:05:27;;;;;;;2.50;0.40;;;;;;;5.79;79.06;94846.84;5032753;28;20264;-76
2021/05/22 02:07:53;;;;;;;1.90;0.30;;;;;;;5.67;79.57;94846.19;5031529;28;20265;-76
2021/05/22 02:10:19;;;;;;;0.60;0.30;;;;;;;5.62;79.94;94832.88;5006514;28;20223;-76
2021/05/22 02:12:45;;;;;;;1.30;0.80;;;;;;;5.59;80.14;94843.47;5030205;28;20712;-75
2021/05/22 02:15:11;;;;;;;0.70;0.30;;;;;;;5.51;80.44;94834.78;5031331;28;20187;-75
2021/05/22 02:17:38;;;;;;;2.50;0.40;;;;;;;5.53;80.45;94844.00;5032386;28;20597;-76
2021/05/22 02:20:04;;;;;;;0.60;0.40;;;;;;;5.39;81.00;94854.69;5030249;28;20274;-75
2021/05/22 02:22:30;;;;;;;0.30;0.30;;;;;;;5.52;80.79;94834.63;5014375;28;20705;-76
2021/05/22 02:24:56;;;;;;;1.20;0.40;;;;;;;5.50;81.10;94835.72;5032448;28;20183;-76
2021/05/22 02:27:21;;;;;;;2.50;0.70;;;;;;;5.53;80.88;94832.88;5031000;28;20209;-76
2021/05/22 02:29:47;;;;;;;1.20;0.50;;;;;;;5.63;79.33;94833.69;5029861;28;20178;-76
2021/05/22 02:32:13;;;;;;;0.90;0.40;;;;;;;5.58;79.46;94835.88;5023639;28;20687;-76
2021/05/22 02:35:05;;;;;;;1.83;0.50;;;;;;;5.61;79.95;94840.75;5013791;28;20250;-75
2021/05/22 02:37:32;;;;;;;1.27;0.40;;;;;;;5.66;79.54;94834.25;5028835;28;20564;-76
2021/05/22 02:39:59;;;;;;;1.67;0.50;;;;;;;5.59;79.77;94832.34;5030867;28;20188;-75
2021/05/22 02:42:25;;;;;;;0.93;0.60;;;;;;;5.56;79.70;94837.75;5021832;28;20284;-76
2021/05/22 02:44:52;;;;;;;1.07;0.70;;;;;;;5.53;80.08;94835.44;5014387;28;20182;-76
2021/05/22 02:47:19;;;;;;;1.10;0.63;;;;;;;5.64;80.43;94830.16;5030933;28;20202;-76
2021/05/22 02:49:46;;;;;;;2.87;0.80;;;;;;;5.67;79.90;94838.47;5030706;28;20179;-76
2021/05/22 02:52:15;;;;;;;2.77;0.80;;;;;;;5.66;79.91;94848.91;5012555;28;20226;-76
2021/05/22 02:54:41;;;;;;;2.90;0.80;;;;;;;5.68;79.91;94855.53;5030669;28;20181;-76
2021/05/22 02:57:09;;;;;;;2.20;0.77;;;;;;;5.78;79.90;94859.88;5030641;28;20665;-76
2021/05/22 02:59:34;;;;;;;3.83;0.80;;;;;;;5.86;78.99;94853.09;5030538;28;20185;-76
2021/05/22 03:02:01;;;;;;;5.10;0.80;;;;;;;5.92;78.84;94852.59;5028925;28;20210;-76
2021/05/22 03:04:27;;;;;;;3.03;1.00;;;;;;;5.90;79.74;94845.91;5022795;28;20182;-76
2021/05/22 03:06:53;;;;;;;5.00;1.00;;;;;;;5.97;78.63;94845.25;5030374;28;20568;-76
2021/05/22 03:09:18;;;;;;;3.70;1.03;;;;;;;5.95;78.96;94838.63;5030559;28;20261;-75
2021/05/22 03:11:43;;;;;;;6.10;1.20;;;;;;;5.92;79.75;94844.88;5030135;28;20193;-76
2021/05/22 03:14:09;;;;;;;3.00;0.90;;;;;;;5.88;79.46;94843.47;5020112;28;20191;-76
2021/05/22 03:16:34;;;;;;;3.37;0.83;;;;;;;5.88;79.43;94838.31;5030357;28;20554;-75
2021/05/22 03:19:00;;;;;;;4.53;1.50;;;;;;;5.93;79.27;94846.50;5031523;28;20697;-76
2021/05/22 03:21:25;;;;;;;3.50;1.07;;;;;;;5.94;78.97;94844.72;5029856;28;20174;-76
2021/05/22 03:23:51;;;;;;;4.87;1.20;;;;;;;5.96;78.31;94835.91;5030463;28;20682;-76
2021/05/22 03:26:16;;;;;;;4.60;0.90;;;;;;;5.97;77.52;94837.53;5046871;28;20226;-76
2021/05/22 03:28:42;;;;;;;5.00;1.00;;;;;;;6.04;77.80;94850.69;5030456;28;20590;-76
2021/05/22 03:31:07;;;;;;;4.27;1.10;;;;;;;5.97;78.59;94847.84;5013406;28;20638;-76
2021/05/22 03:33:33;;;;;;;6.27;1.00;;;;;;;5.95;78.90;94842.00;5030707;28;20197;-76
2021/05/22 03:35:58;;;;;;;3.90;1.40;;;;;;;5.94;78.89;94847.31;5005082;28;20190;-76
2021/05/22 03:38:23;;;;;;;3.23;1.07;;;;;;;6.03;77.36;94827.63;5030194;28;20224;-75
2021/05/22 03:40:49;;;;;;;4.67;1.10;;;;;;;6.04;78.25;94834.41;5031137;28;20206;-76
2021/05/22 03:43:14;;;;;;;3.63;0.90;;;;;;;6.03;77.47;94838.75;5031270;28;20213;-76
2021/05/22 03:45:39;;;;;;;7.43;1.43;;;;;;;6.06;75.62;94824.75;5026891;28;20197;-77
2021/05/22 03:48:05;;;;;;;2.93;0.80;;;;;;;6.01;76.51;94832.09;5031639;28;20189;-76
2021/05/22 03:50:31;;;;;;;3.17;1.60;;;;;;;5.99;76.35;94834.81;5034886;28;20642;-75
2021/05/22 03:52:56;;;;;;;2.70;1.10;;;;;;;5.99;76.29;94837.38;5033903;28;20252;-76
2021/05/22 03:55:21;;;;;;;3.40;1.00;;;;;;;5.98;76.50;94833.19;5032250;28;20191;-75
2021/05/22 03:57:46;;;;;;;3.67;1.00;;;;;;;5.99;76.24;94841.72;5025806;28;20183;-76
2021/05/22 04:00:13;;;;;;;4.00;0.90;;;;;;;5.94;75.93;94848.13;5033947;28;20193;-75
2021/05/22 04:02:38;;;;;;;6.90;1.10;;;;;;;5.97;75.75;94860.72;5033574;28;20234;-76
2021/05/22 04:05:04;;;;;;;2.63;1.03;;;;;;;5.86;75.69;94863.41;5024609;28;20601;-76
2021/05/22 04:07:30;;;;;;;3.43;1.10;;;;;;;5.81;76.00;94863.00;5017000;28;20283;-75
2021/05/22 04:09:55;;;;;;;3.83;0.90;;;;;;;5.77;76.16;94863.41;5032447;28;20226;-76
2021/05/22 04:12:21;;;;;;;2.97;0.70;;;;;;;5.77;75.92;94861.66;5033291;28;20241;-75
2021/05/22 04:14:46;;;;;;;6.10;1.10;;;;;;;5.82;75.50;94863.78;5016147;28;20258;-75
2021/05/22 04:17:11;;;;;;;3.83;0.70;;;;;;;5.88;75.46;94871.00;5025252;28;20189;-76
2021/05/22 04:19:37;;;;;;;1.47;0.70;;;;;;;6.00;75.61;94872.50;5017142;28;20182;-76
2021/05/22 04:22:02;;;;;;;2.27;0.80;;;;;;;5.89;76.03;94865.69;5034377;28;20194;-75
2021/05/22 04:24:27;;;;;;;2.33;0.73;;;;;;;5.94;75.80;94863.56;5033465;28;20179;-76
2021/05/22 04:26:53;;;;;;;3.67;0.70;;;;;;;5.90;75.59;94861.38;5024061;28;20214;-76
2021/05/22 04:29:18;;;;;;;2.37;0.70;;;;;;;5.93;76.15;94859.38;5016891;28;20559;-75
2021/05/22 04:31:43;;;;;;;3.50;0.53;;;;;;;6.86;74.42;94857.81;5034600;28;20178;-76
2021/05/22 04:34:09;;;;;;;1.37;0.63;;;;;;;7.61;70.21;94864.53;5033304;28;20250;-75
2021/05/22 04:36:35;;;;;;;1.83;0.60;;;;;;;8.41;67.35;94870.59;5030477;28;20210;-76
2021/05/22 04:39:00;;;;;;;1.23;0.50;;;;;;;8.85;64.32;94872.31;5033160;28;20556;-77
2021/05/22 04:41:25;;;;;;;2.50;0.77;;;;;;;8.99;64.42;94874.31;5032878;28;20179;-76
2021/05/22 04:43:51;;;;;;;3.60;0.70;;;;;;;8.39;65.75;94867.34;5032997;28;20195;-75
2021/05/22 04:46:16;;;;;;;1.83;0.50;;;;;;;7.67;68.85;94879.44;5032982;28;20218;-76
2021/05/22 04:48:41;;;;;;;1.90;0.60;;;;;;;7.61;69.61;94863.72;5024707;28;20178;-76
2021/05/22 04:51:09;;;;;;;1.10;0.80;;;;;;;7.39;70.28;94872.66;5033625;28;20182;-76
2021/05/22 04:53:34;;;;;;;2.67;0.73;;;;;;;8.04;68.62;94863.00;5016634;28;20546;-76
2021/05/22 04:56:00;;;;;;;0.80;0.50;;;;;;;8.80;65.09;94865.00;5016275;28;20174;-76
2021/05/22 04:58:25;;;;;;;4.20;1.00;;;;;;;9.58;62.66;94876.03;5024523;28;20190;-76
2021/05/22 05:00:50;;;;;;;3.30;0.73;;;;;;;9.65;61.27;94871.03;5032472;28;20183;-76
2021/05/22 05:03:16;;;;;;;3.90;0.67;;;;;;;11.62;56.47;94873.25;5032738;28;20209;-76
2021/05/22 05:05:41;;;;;;;3.17;0.67;;;;;;;12.17;53.46;94875.72;5032558;28;20308;-76
2021/05/22 05:08:07;;;;;;;4.97;0.77;;;;;;;12.71;52.63;94886.03;5031296;28;20186;-76
2021/05/22 05:10:32;;;;;;;3.27;0.90;;;;;;;12.54;51.29;94886.34;5025504;28;20181;-76
2021/05/22 05:12:57;;;;;;;2.33;0.90;;;;;;;13.19;49.88;94880.53;5032481;28;20678;-76
2021/05/22 05:15:22;;;;;;;2.17;0.90;;;;;;;13.40;49.95;94891.06;5032663;28;20657;-76
2021/05/22 05:17:48;;;;;;;3.40;0.97;;;;;;;13.60;48.34;94886.09;5015889;28;20182;-76
2021/05/22 05:20:13;;;;;;;2.20;0.90;;;;;;;15.17;46.23;94890.41;5022908;28;20659;-77
2021/05/22 05:22:38;;;;;;;5.23;1.00;;;;;;;15.51;44.61;94899.25;5015493;28;20202;-76
2021/05/22 05:25:05;;;;;;;3.67;1.23;;;;;;;16.49;42.33;94895.38;5032457;28;20618;-76
2021/05/22 05:27:31;;;;;;;4.80;1.00;;;;;;;17.72;39.56;94895.72;5032218;28;20300;-76
2021/05/22 05:29:56;;;;;;;2.10;0.98;;;;;;;17.14;39.86;94899.06;5022156;28;20225;-76
2021/05/22 05:32:21;;;;;;;3.45;1.20;;;;;;;17.11;38.98;94909.94;5031922;28;20533;-76
2021/05/22 05:34:47;;;;;;;4.57;1.10;;;;;;;16.74;38.24;94893.00;5032416;28;20584;-77
2021/05/22 05:37:12;;;;;;;2.25;0.93;;;;;;;15.95;39.14;94893.66;5033666;28;20228;-77
2021/05/22 05:39:39;;;;;;;3.65;0.85;;;;;;;16.70;38.98;94897.88;5014891;28;20183;-77
2021/05/22 05:42:04;;;;;;;4.07;0.95;;;;;;;17.68;38.43;94902.38;5023602;28;20442;-77
2021/05/22 05:44:30;;;;;;;2.75;1.00;;;;;;;17.42;38.72;94901.44;5033487;28;20175;-77
2021/05/22 05:46:55;;;;;;;2.92;1.13;;;;;;;17.74;36.65;94894.50;5033427;28;20198;-77
2021/05/22 05:49:21;;;;;;;3.78;1.27;;;;;;;17.73;37.39;94894.69;5032080;28;20175;-75
2021/05/22 05:51:46;;;;;;;3.03;1.00;;;;;;;17.69;36.95;94889.03;5007546;28;20195;-77
2021/05/22 05:54:11;;;;;;;3.97;1.13;;;;;;;17.67;37.46;94898.13;5030821;28;20170;-76
2021/05/22 05:56:37;;;;;;;4.22;1.00;;;;;;;16.70;38.65;94903.09;5032069;28;20175;-75
2021/05/22 05:59:02;;;;;;;3.63;1.13;;;;;;;17.21;36.57;94899.03;5033283;28;20229;-77
2021/05/22 06:01:27;;;;;;;2.88;1.05;;;;;;;18.35;35.53;94912.41;5027536;28;20183;-77
2021/05/22 06:03:53;;;;;;;4.07;1.45;;;;;;;17.91;36.47;94907.16;5028557;28;20663;-77
2021/05/22 06:06:20;;;;;;;3.35;0.90;;;;;;;16.16;39.96;94911.03;5032658;28;20210;-77
2021/05/22 06:08:45;;;;;;;5.90;1.08;;;;;;;13.50;44.92;94909.03;5030627;28;20228;-77
2021/05/22 06:11:13;;;;;;;5.53;1.20;;;;;;;13.65;46.90;94920.28;5031487;28;20733;-76
2021/05/22 06:13:39;;;;;;;3.22;1.10;;;;;;;12.05;50.87;94920.53;5023849;28;20206;-77
2021/05/22 06:16:16;;;;;;;2.80;1.40;;;;;;;11.98;50.66;94919.59;5031128;28;20587;-76
2021/05/22 06:18:41;;;;;;;3.63;1.30;;;;;;;12.01;50.91;94914.84;5016303;28;20316;-77
2021/05/22 06:21:08;;;;;;;5.00;1.97;;;;;;;12.01;51.68;94914.84;5031026;28;20654;-76
2021/05/22 06:23:34;;;;;;;5.90;1.40;;;;;;;12.85;49.26;94917.50;5025025;28;20218;-76
2021/05/22 06:26:00;;;;;;;5.03;0.93;;;;;;;12.53;50.33;94919.38;5027909;28;20248;-77
2021/05/22 06:28:26;;;;;;;5.63;1.70;;;;;;;12.72;50.26;94926.75;5032453;28;20178;-76
2021/05/22 06:30:52;;;;;;;5.50;1.30;;;;;;;12.37;49.97;94925.56;5030802;28;20174;-76
2021/05/22 06:33:17;;;;;;;5.83;0.87;;;;;;;12.82;47.53;94925.69;5027065;28;20224;-76
2021/05/22 06:35:43;;;;;;;3.07;1.30;;;;;;;12.00;50.23;94921.03;5009097;28;20181;-75
2021/05/22 06:38:09;;;;;;;2.10;1.10;;;;;;;13.56;46.47;94922.19;5030786;28;20187;-76
2021/05/22 06:40:34;;;;;;;5.17;1.40;;;;;;;13.86;44.92;94920.34;5014033;28;20654;-75
2021/05/22 06:42:59;;;;;;;4.90;1.00;;;;;;;14.00;43.77;94923.13;5030586;28;20277;-75
2021/05/22 06:45:27;;;;;;;3.77;1.10;;;;;;;16.13;40.03;94925.31;5028026;28;20184;-75
2021/05/22 06:47:52;;;;;;;2.23;1.13;;;;;;;16.67;38.30;94919.19;5030477;28;20234;-76
2021/05/22 06:50:18;;;;;;;3.93;1.03;;;;;;;16.36;38.52;94919.75;5014086;28;20692;-75
2021/05/22 06:52:44;;;;;;;2.20;1.00;;;;;;;16.47;38.75;94917.56;5014153;28;20210;-75
2021/05/22 06:55:09;;;;;;;4.23;1.10;;;;;;;14.80;42.25;94911.66;5027482;28;20666;-75
2021/05/22 06:57:35;;;;;;;5.23;1.00;;;;;;;15.06;42.10;94914.47;5007708;28;20194;-75
2021/05/22 07:00:00;;;;;;;3.17;1.00;;;;;;;16.31;40.31;94921.34;5014290;28;20186;-75
2021/05/22 07:02:25;;;;;;;6.77;1.50;;;;;;;16.79;37.77;94913.41;5030635;28;20202;-75
2021/05/22 07:04:51;;;;;;;2.27;1.10;;;;;;;17.58;36.76;94923.00;5028532;28;20248;-75
2021/05/22 07:07:16;;;;;;;2.43;1.13;;;;;;;16.56;37.90;94911.94;5022015;28;20225;-75
2021/05/22 07:09:42;;;;;;;6.47;1.07;;;;;;;15.05;40.13;94917.28;5030253;28;20190;-75
2021/05/22 07:12:09;;;;;;;3.33;0.90;;;;;;;15.38;41.19;94917.50;5030274;28;20324;-75
2021/05/22 07:14:35;;;;;;;4.37;1.37;;;;;;;14.95;40.71;94926.28;5027134;28;20265;-75
2021/05/22 07:17:00;;;;;;;2.33;0.90;;;;;;;15.86;40.21;94916.56;5059319;28;20194;-75
2021/05/22 07:19:26;;;;;;;3.80;1.20;;;;;;;15.12;40.57;94918.16;5028471;28;20202;-74
2021/05/22 07:21:52;;;;;;;2.53;0.83;;;;;;;14.73;41.31;94925.47;5029281;28;20179;-74
2021/05/22 07:24:19;;;;;;;5.80;1.20;;;;;;;15.37;40.40;94908.88;5031311;28;20320;-74
2021/05/22 07:26:44;;;;;;;2.90;1.07;;;;;;;14.62;42.18;94920.75;5011732;28;20206;-75
2021/05/22 07:29:10;;;;;;;6.20;1.20;;;;;;;15.25;39.51;94915.59;5021744;28;20183;-75
2021/05/22 07:31:39;;;;;;;2.87;1.10;;;;;;;15.01;40.19;94925.50;5032561;28;20654;-74
2021/05/22 07:34:05;;;;;;;3.53;1.07;;;;;;;15.84;39.12;94929.06;5030214;28;20536;-75
2021/05/22 07:36:30;;;;;;;2.50;0.87;;;;;;;15.82;38.37;94927.66;5031324;28;20190;-74
2021/05/22 07:38:55;;;;;;;2.83;0.90;;;;;;;14.06;40.54;94943.28;5021378;28;20186;-75
2021/05/22 07:41:21;;;;;;;3.80;1.00;;;;;;;13.93;41.24;94941.31;5029552;28;20328;-75
2021/05/22 07:43:46;;;;;;;2.60;0.90;;;;;;;14.44;40.87;94938.66;5029847;28;20202;-74
2021/05/22 07:46:12;;;;;;;4.80;1.03;;;;;;;14.89;40.64;94929.63;5031037;28;20206;-76
2021/05/22 07:48:37;;;;;;;5.83;1.20;;;;;;;15.54;38.79;94919.78;5024652;28;20191;-76
2021/05/22 07:51:03;;;;;;;3.43;1.13;;;;;;;15.98;38.37;94939.56;5011005;28;20197;-76
2021/05/22 07:53:28;;;;;;;4.60;1.27;;;;;;;14.84;38.82;94934.63;5029853;28;20751;-74
2021/05/22 07:55:55;;;;;;;2.63;0.90;;;;;;;15.02;39.01;94924.53;5029851;28;20777;-75
2021/05/22 07:58:20;;;;;;;2.23;0.90;;;;;;;14.75;38.00;94927.91;5012410;28;20185;-75
2021/05/22 08:00:46;;;;;;;3.70;1.00;;;;;;;15.49;38.13;94932.66;5021253;28;20273;-75
2021/05/22 08:03:12;;;;;;;3.17;1.00;;;;;;;13.36;41.37;94933.34;5030934;28;20205;-75
2021/05/22 08:05:37;;;;;;;4.13;1.07;;;;;;;13.62;42.11;94938.91;5030041;28;20178;-75
2021/05/22 08:08:03;;;;;;;3.80;0.90;;;;;;;13.47;41.32;94945.94;5029713;28;20211;-75
2021/05/22 08:10:29;;;;;;;3.87;1.20;;;;;;;13.87;40.88;94932.41;5021526;28;20669;-75
2021/05/22 08:12:54;;;;;;;6.27;1.17;;;;;;;13.80;40.11;94933.31;5029501;28;20565;-74
2021/05/22 08:15:19;;;;;;;4.03;0.80;;;;;;;13.24;39.95;94933.75;5027667;28;20183;-75
2021/05/22 08:17:45;;;;;;;3.83;0.97;;;;;;;13.17;41.51;94940.69;5030718;28;20638;-75
2021/05/22 08:20:11;;;;;;;3.20;1.00;;;;;;;13.82;39.26;94929.53;5026241;28;20179;-75
2021/05/22 08:22:37;;;;;;;3.33;0.80;;;;;;;13.61;40.72;94932.09;5027238;28;20216;-75
2021/05/22 08:25:04;;;;;;;3.63;0.80;;;;;;;13.40;41.05;94929.38;5029626;28;20183;-75
2021/05/22 08:27:30;;;;;;;4.47;1.17;;;;;;;13.58;40.54;94929.81;5012762;28;20213;-75
2021/05/22 08:29:56;;;;;;;4.17;1.97;;;;;;;14.12;40.74;94937.28;5029612;28;20183;-72
2021/05/22 08:32:21;;;;;;;3.63;1.00;;;;;;;13.78;40.69;94924.84;5012794;28;20201;-75
2021/05/22 08:34:47;;;;;;;1.97;1.07;;;;;;;14.02;39.70;94918.50;5033194;28;20186;-76
2021/05/22 08:37:13;;;;;;;3.67;0.80;;;;;;;14.00;40.41;94923.91;5048882;28;20320;-75
2021/05/22 08:39:43;;;;;;;1.93;0.90;;;;;;;13.68;40.55;94925.13;5052927;28;20300;-75
2021/05/22 08:42:11;;;;;;;2.80;1.00;;;;;;;13.76;40.30;94916.41;5051262;28;20583;-76
2021/05/22 08:44:38;;;;;;;2.67;1.00;;;;;;;13.61;39.87;94921.66;5052828;28;20591;-75
2021/05/22 08:47:04;;;;;;;2.83;1.07;;;;;;;13.73;39.71;94928.00;5067635;28;20292;-75
2021/05/22 08:49:40;;;;;;;3.03;1.03;;;;;;;14.00;40.06;94923.91;5054779;28;20277;-75
2021/05/22 08:52:06;;;;;;;4.13;0.97;;;;;;;13.60;40.11;94923.44;5051247;28;20596;-76
2021/05/22 08:54:31;;;;;;;5.93;1.30;;;;;;;13.48;39.81;94919.66;5052585;28;20205;-75
2021/05/22 08:56:57;;;;;;;5.20;2.07;;;;;;;13.76;39.72;94921.63;5053781;28;20257;-74
2021/05/22 08:59:22;;;;;;;1.83;1.10;;;;;;;13.85;39.44;94923.94;5036264;28;20196;-75
2021/05/22 09:01:47;;;;;;;3.90;0.90;;;;;;;13.72;38.62;94928.19;5052349;28;20181;-75
2021/05/22 09:04:12;;;;;;;3.87;0.90;;;;;;;13.48;39.06;94924.88;5052582;28;20661;-74
2021/05/22 09:06:58;;;;;;;2.97;0.90;;;;;;;13.48;39.06;94924.88;5035859;28;20202;-75
2021/05/22 09:09:37;;;;;;;2.03;0.90;;;;;;;13.81;38.71;94919.28;5052440;28;20641;-75
2021/05/22 09:12:02;;;;;;;3.43;0.90;;;;;;;13.70;38.22;94928.38;5052392;28;20198;-75
2021/05/22 09:14:43;;;;;;;2.87;1.43;;;;;;;13.64;38.96;94918.66;5051425;28;20188;-74
2021/05/22 09:17:09;;;;;;;4.73;0.90;;;;;;;13.38;38.61;94923.53;5053717;28;20304;-77
2021/05/22 09:19:34;;;;;;;2.77;0.70;;;;;;;13.32;39.43;94936.28;5035671;28;20182;-75
2021/05/22 09:22:29;;;;;;;2.70;0.90;;;;;;;13.45;39.18;94933.06;5051893;28;20240;-73
2021/05/22 09:25:03;;;;;;;2.40;0.70;;;;;;;13.28;38.26;94932.44;5052326;28;20243;-74
2021/05/22 09:27:40;;;;;;;3.27;0.90;;;;;;;13.59;38.78;94928.81;5035356;28;20669;-74
2021/05/22 09:30:14;;;;;;;2.17;0.90;;;;;;;13.69;39.28;94937.19;5051962;28;20181;-74
2021/05/22 09:32:40;;;;;;;3.80;0.80;;;;;;;14.00;37.93;94933.56;5035378;28;20661;-74
2021/05/22 09:35:07;;;;;;;4.23;0.87;;;;;;;13.95;37.55;94938.50;5034484;28;20186;-73
2021/05/22 09:37:48;;;;;;;3.17;0.83;;;;;;;13.97;38.50;94928.72;5051843;28;20178;-73
2021/05/22 09:40:16;;;;;;;3.77;0.83;;;;;;;13.72;39.90;94936.03;5053159;28;20239;-74
2021/05/22 09:42:42;;;;;;;4.50;0.70;;;;;;;13.70;38.92;94930.19;5052747;28;20190;-74
2021/05/22 09:45:35;;;;;;;4.17;0.93;;;;;;;14.22;37.79;94932.59;5049758;28;20565;-74
2021/05/22 09:48:20;;;;;;;109.70;6.37;;;;;;;14.58;37.86;94929.19;5027322;28;20217;-74
2021/05/22 09:50:53;;;;;;;22.57;1.60;;;;;;;14.11;36.60;94935.69;5051404;28;20637;-74
2021/05/22 09:53:36;;;;;;;4.07;1.00;;;;;;;14.32;36.36;94921.88;5051578;28;20213;-74
2021/05/22 09:56:19;;;;;;;1.83;0.80;;;;;;;14.73;37.19;94929.91;5033908;28;20247;-74
2021/05/22 09:58:58;;;;;;;1.80;0.80;;;;;;;14.41;36.82;94932.00;5034798;28;20193;-74
2021/05/22 10:01:32;;;;;;;3.00;0.70;;;;;;;14.70;36.54;94936.31;5034379;28;20207;-74
2021/05/22 10:04:18;;;;;;;3.17;0.90;;;;;;;15.05;37.63;94940.81;5035249;28;20366;-74
2021/05/22 10:06:44;;;;;;;1.63;0.63;;;;;;;14.62;36.25;94941.66;5051494;28;20202;-74
2021/05/22 10:09:10;;;;;;;4.20;0.97;;;;;;;14.58;36.36;94934.41;5084787;28;20660;-75
2021/05/22 10:12:15;;;;;;;1.60;0.60;;;;;;;14.57;35.74;94935.38;5051227;28;20182;-76
2021/05/22 10:14:44;;;;;;;2.07;0.57;;;;;;;14.64;35.14;94931.03;5052498;28;20697;-77
2021/05/22 10:17:12;;;;;;;1.03;0.70;;;;;;;14.58;35.66;94943.03;5050220;28;20685;-74
2021/05/22 10:19:38;;;;;;;3.53;0.90;;;;;;;14.76;34.65;94940.00;5051123;28;20184;-75
2021/05/22 10:22:05;;;;;;;3.10;0.93;;;;;;;14.73;34.70;94941.16;5050891;28;20194;-74
2021/05/22 10:24:30;;;;;;;2.60;0.60;;;;;;;14.33;34.67;94932.13;5051015;28;20177;-74
2021/05/22 10:26:57;;;;;;;1.80;0.70;;;;;;;14.32;34.76;94945.38;5051061;28;20548;-75
2021/05/22 10:29:23;;;;;;;3.60;0.70;;;;;;;14.26;35.23;94944.28;5048969;28;20197;-75
2021/05/22 10:31:49;;;;;;;1.57;0.60;;;;;;;14.74;35.33;94934.94;5050648;28;20192;-75
2021/05/22 10:34:16;;;;;;;3.43;0.80;;;;;;;15.02;34.80;94955.91;5034275;28;20182;-75
2021/05/22 10:36:51;;;;;;;2.70;1.00;;;;;;;14.47;34.99;94946.13;5050939;28;20166;-75
2021/05/22 10:39:39;;;;;;;3.80;1.13;;;;;;;14.95;33.70;94954.22;5033314;28;20586;-74
2021/05/22 10:42:06;;;;;;;2.73;1.03;;;;;;;15.25;32.88;94949.63;5051641;28;20244;-75
2021/05/22 10:44:33;;;;;;;1.77;0.80;;;;;;;15.08;34.25;94945.66;5034145;28;20611;-75
2021/05/22 10:47:11;;;;;;;10.53;4.30;;;;;;;14.81;33.54;94962.94;5051862;28;20194;-75
2021/05/22 10:49:55;;;;;;;2.60;0.90;;;;;;;14.55;33.35;94964.31;5050772;28;20305;-74
2021/05/22 10:52:30;;;;;;;2.03;0.80;;;;;;;14.88;33.49;94951.53;5050244;28;20205;-74
2021/05/22 10:55:02;;;;;;;1.60;0.57;;;;;;;15.34;33.40;94943.22;5050055;28;20213;-74
2021/05/22 10:57:28;;;;;;;2.67;0.73;;;;;;;15.40;32.31;94958.19;5050547;28;20622;-74
2021/05/22 11:00:12;;;;;;;5.07;0.80;;;;;;;14.42;31.21;94974.59;5032977;28;20621;-74
2021/05/22 11:02:39;;;;;;;2.50;0.73;;;;;;;14.69;32.55;94949.56;5045199;28;20299;-73
2021/05/22 11:05:28;;;;;;;40.13;3.83;;;;;;;14.69;32.82;94965.25;5033835;28;20174;-73
2021/05/22 11:08:03;;;;;;;3.00;0.70;;;;;;;14.98;32.71;94965.09;5050258;28;20243;-74
2021/05/22 11:10:41;;;;;;;3.67;0.80;;;;;;;15.22;32.66;94952.63;5050171;28;20314;-74
2021/05/22 11:13:11;;;;;;;5.17;0.90;;;;;;;15.28;32.19;94965.75;5083741;28;20202;-75
2021/05/22 11:15:37;;;;;;;3.40;0.70;;;;;;;15.19;32.46;94961.63;5050290;28;20683;-75
2021/05/22 11:18:02;;;;;;;3.87;1.20;;;;;;;15.08;33.75;94975.22;5051555;28;20265;-75
2021/05/22 11:20:27;;;;;;;3.30;0.80;;;;;;;15.54;33.37;94975.56;5051136;28;20192;-75
2021/05/22 11:22:54;;;;;;;4.27;0.80;;;;;;;15.87;32.71;94969.75;5048730;28;20212;-76
2021/05/22 11:25:20;;;;;;;1.83;0.60;;;;;;;15.44;31.69;94969.88;5052121;28;20249;-76
2021/05/22 11:27:51;;;;;;;3.03;0.80;;;;;;;15.35;32.08;94960.53;5050096;28;20206;-76
2021/05/22 11:30:23;;;;;;;1.80;0.70;;;;;;;15.44;31.65;94976.91;5051226;28;20178;-77
2021/05/22 11:32:52;;;;;;;1.17;0.70;;;;;;;15.37;31.02;94965.59;5031853;28;20208;-76
2021/05/22 11:35:26;;;;;;;2.10;0.90;;;;;;;15.52;31.77;94963.69;5050962;28;20209;-76
2021/05/22 11:37:53;;;;;;;2.27;0.93;;;;;;;15.44;30.65;94953.34;5051153;28;20247;-76